Time;durP1;ratioP1;P1;durP2;ratioP2;P2;SDS_P1;SDS_P2;PMS_P1;PMS_P2;Temp;Humidity;BMP_temperature;BMP_pressure;BME280_temperature;BME280_humidity;BME280_pressure;Samples;Min_cycle;Max_cycle;Signal;HPM_P1;HPM_P2
2024/01/05 00:00:31;;;;;;;31.30;7.40;;;;;;;6.53;100.00;99795.28;5063695;28;20028;-89
2024/01/05 00:02:59;;;;;;;26.65;7.40;;;;;;;6.46;100.00;99796.97;5087430;28;20035;-88
2024/01/05 00:05:25;;;;;;;27.85;7.28;;;;;;;6.46;100.00;99791.72;5091156;28;20092;-88
2024/01/05 00:07:51;;;;;;;25.67;6.78;;;;;;;6.47;100.00;99782.13;5087485;28;20045;-88
2024/01/05 00:10:16;;;;;;;28.17;7.20;;;;;;;6.50;100.00;99784.75;5090220;28;20038;-90
2024/01/05 00:12:41;;;;;;;28.92;7.03;;;;;;;6.57;100.00;99778.66;5088968;28;20064;-90
2024/01/05 00:15:07;;;;;;;28.65;6.70;;;;;;;6.58;100.00;99781.28;5088709;28;20075;-89
2024/01/05 00:17:33;;;;;;;28.77;6.65;;;;;;;6.62;100.00;99779.53;5090240;28;20036;-90
2024/01/05 00:19:59;;;;;;;27.15;6.60;;;;;;;6.63;100.00;99776.91;5087707;28;20033;-90
2024/01/05 00:22:24;;;;;;;28.65;6.35;;;;;;;6.66;100.00;99780.44;5090736;28;20020;-83
2024/01/05 00:24:50;;;;;;;26.13;6.60;;;;;;;6.70;100.00;99782.19;5083622;28;20071;-90
2024/01/05 00:27:16;;;;;;;28.05;6.35;;;;;;;6.73;100.00;99766.47;5086633;28;20063;-88
2024/01/05 00:29:41;;;;;;;29.58;7.00;;;;;;;6.75;100.00;99769.94;5085410;28;20036;-78
2024/01/05 00:32:06;;;;;;;27.58;6.50;;;;;;;6.72;100.00;99769.94;5085180;28;20120;-78
2024/01/05 00:34:32;;;;;;;27.23;6.53;;;;;;;6.74;100.00;99762.94;5086712;28;20115;-78
2024/01/05 00:36:57;;;;;;;27.20;6.68;;;;;;;6.77;100.00;99762.94;5065576;28;20028;-78
2024/01/05 00:39:23;;;;;;;29.67;6.72;;;;;;;6.78;100.00;99754.19;5087497;28;20028;-78
2024/01/05 00:41:48;;;;;;;27.15;6.22;;;;;;;6.78;100.00;99759.44;5066239;28;20052;-78
2024/01/05 00:44:14;;;;;;;29.55;6.72;;;;;;;6.79;100.00;99762.09;5085769;28;20058;-78
2024/01/05 00:46:39;;;;;;;26.48;6.53;;;;;;;6.76;100.00;99745.44;5067276;28;20060;-79
2024/01/05 00:49:04;;;;;;;29.13;6.50;;;;;;;6.79;100.00;99743.69;5084733;28;20107;-78
2024/01/05 00:51:30;;;;;;;27.70;6.28;;;;;;;6.80;100.00;99750.72;5086428;28;20040;-78
2024/01/05 00:53:55;;;;;;;26.80;6.45;;;;;;;6.81;100.00;99743.69;5083462;28;20032;-78
2024/01/05 00:56:21;;;;;;;26.90;6.82;;;;;;;6.84;100.00;99742.84;5086544;28;20047;-78
2024/01/05 00:58:46;;;;;;;29.15;6.35;;;;;;;6.84;100.00;99737.56;5084098;28;20059;-78
2024/01/05 01:01:12;;;;;;;26.92;6.13;;;;;;;6.85;100.00;99742.84;5085542;28;20073;-78
2024/01/05 01:03:37;;;;;;;26.10;5.88;;;;;;;6.88;100.00;99734.09;5082281;28;20480;-78
2024/01/05 01:06:03;;;;;;;26.92;5.97;;;;;;;6.88;100.00;99734.94;5086304;28;20028;-82
2024/01/05 01:08:28;;;;;;;24.35;6.13;;;;;;;6.88;100.00;99726.22;5084065;28;20025;-89
2024/01/05 01:10:54;;;;;;;25.63;6.57;;;;;;;6.86;100.00;99723.56;5086698;28;20028;-85
2024/01/05 01:13:19;;;;;;;26.75;6.30;;;;;;;6.85;100.00;99719.19;5065724;28;20028;-79
2024/01/05 01:15:45;;;;;;;25.88;6.10;;;;;;;6.84;100.00;99717.44;5085467;28;20071;-79
2024/01/05 01:18:10;;;;;;;27.05;6.22;;;;;;;6.86;100.00;99720.06;5084715;28;20028;-90
2024/01/05 01:20:36;;;;;;;26.08;6.20;;;;;;;6.88;100.00;99716.56;5066469;28;20040;-89
2024/01/05 01:23:01;;;;;;;26.45;6.32;;;;;;;6.89;100.00;99710.44;5086024;28;20089;-90
2024/01/05 01:25:26;;;;;;;25.23;6.15;;;;;;;6.89;100.00;99715.69;5065112;28;20475;-90
2024/01/05 01:27:52;;;;;;;26.08;6.07;;;;;;;6.91;100.00;99703.44;5086143;28;20054;-90
2024/01/05 01:30:17;;;;;;;24.48;6.18;;;;;;;6.89;100.00;99699.06;5084204;28;20061;-91
2024/01/05 01:32:42;;;;;;;25.85;6.10;;;;;;;6.91;100.00;99697.31;5086366;28;20025;-90
2024/01/05 01:35:08;;;;;;;26.08;6.00;;;;;;;6.89;100.00;99701.69;5086149;28;20486;-89
2024/01/05 01:37:33;;;;;;;26.08;5.65;;;;;;;6.88;100.00;99694.69;5084284;28;20387;-84
2024/01/05 01:39:59;;;;;;;23.40;5.45;;;;;;;6.90;100.00;99692.91;5086362;28;20032;-86
2024/01/05 01:42:24;;;;;;;25.80;5.57;;;;;;;6.90;100.00;99685.94;5083266;28;20559;-89
2024/01/05 01:44:51;;;;;;;25.40;5.90;;;;;;;6.90;100.00;99685.03;5085678;28;20059;-90
2024/01/05 01:47:16;;;;;;;24.23;5.70;;;;;;;6.91;100.00;99682.41;5084080;28;20047;-81
2024/01/05 01:49:42;;;;;;;24.70;5.43;;;;;;;6.90;100.00;99675.41;5085831;28;20037;-78
2024/01/05 01:52:08;;;;;;;24.27;5.55;;;;;;;6.93;100.00;99678.03;5085098;28;20095;-78
2024/01/05 01:54:34;;;;;;;25.35;5.68;;;;;;;6.91;100.00;99674.53;5083771;28;20033;-78
2024/01/05 01:57:02;;;;;;;22.38;5.45;;;;;;;6.91;100.00;99657.91;5086175;28;20076;-78
2024/01/05 01:59:28;;;;;;;23.20;5.38;;;;;;;6.91;100.00;99669.28;5081967;28;20025;-78
2024/01/05 02:01:54;;;;;;;23.83;5.40;;;;;;;6.91;100.00;99656.13;5067698;28;20483;-78
2024/01/05 02:04:22;;;;;;;24.40;5.03;;;;;;;6.87;100.00;99649.13;5047789;28;20074;-78
2024/01/05 02:06:47;;;;;;;23.00;4.80;;;;;;;6.88;100.00;99636.88;5084524;28;20020;-78
2024/01/05 02:09:13;;;;;;;24.70;5.00;;;;;;;6.85;100.00;99639.50;5083653;28;20028;-78
2024/01/05 02:11:39;;;;;;;23.58;5.18;;;;;;;6.79;100.00;99625.47;5083215;28;20017;-78
2024/01/05 02:14:04;;;;;;;22.20;4.57;;;;;;;6.71;100.00;99624.59;5084162;28;20032;-78
2024/01/05 02:16:30;;;;;;;20.60;4.70;;;;;;;6.66;100.00;99622.88;5082032;28;20128;-78
2024/01/05 02:18:55;;;;;;;23.77;4.72;;;;;;;6.59;100.00;99620.22;5085121;28;20123;-78
2024/01/05 02:21:29;;;;;;;19.88;4.43;;;;;;;6.59;100.00;99616.72;5081872;28;20078;-78
2024/01/05 02:23:54;;;;;;;20.45;4.80;;;;;;;6.52;100.00;99610.56;5081856;28;20024;-78
2024/01/05 02:26:20;;;;;;;21.88;4.53;;;;;;;6.47;100.00;99614.09;5084517;28;20028;-78
2024/01/05 02:28:45;;;;;;;22.38;5.03;;;;;;;6.43;100.00;99610.56;5082134;28;20139;-78
2024/01/05 02:31:11;;;;;;;23.38;4.95;;;;;;;6.39;100.00;99604.47;5083472;28;20035;-78
2024/01/05 02:33:37;;;;;;;23.70;4.70;;;;;;;6.37;100.00;99607.94;5065592;28;20032;-78
2024/01/05 02:36:03;;;;;;;20.67;4.65;;;;;;;6.44;100.00;99596.59;5081263;28;20471;-78
2024/01/05 02:38:28;;;;;;;21.40;4.57;;;;;;;6.50;100.00;99604.47;5081544;28;20112;-78
2024/01/05 02:40:55;;;;;;;21.15;4.97;;;;;;;6.51;100.00;99598.34;5084859;28;20056;-78
2024/01/05 02:43:21;;;;;;;22.30;4.70;;;;;;;6.53;100.00;99588.69;5063431;28;20028;-78
2024/01/05 02:45:47;;;;;;;20.98;4.55;;;;;;;6.55;100.00;99586.97;5083997;28;20033;-78
2024/01/05 02:48:12;;;;;;;20.08;4.50;;;;;;;6.57;100.00;99579.09;5081858;28;20479;-78
2024/01/05 02:50:37;;;;;;;20.50;4.50;;;;;;;6.58;100.00;99571.22;5082596;28;20051;-78
2024/01/05 02:53:03;;;;;;;19.20;4.35;;;;;;;6.62;100.00;99577.31;5084517;28;20024;-79
2024/01/05 02:55:28;;;;;;;21.52;4.88;;;;;;;6.60;100.00;99577.34;5081413;28;20048;-78
2024/01/05 02:57:54;;;;;;;18.98;4.32;;;;;;;6.60;100.00;99569.44;5084534;28;20537;-78
2024/01/05 03:00:19;;;;;;;22.38;4.50;;;;;;;6.59;100.00;99567.69;5081756;28;20039;-78
2024/01/05 03:02:44;;;;;;;20.33;4.30;;;;;;;6.60;100.00;99561.56;5083513;28;20028;-78
2024/01/05 03:05:10;;;;;;;19.65;4.30;;;;;;;6.58;100.00;99558.09;5083682;28;20119;-88
2024/01/05 03:07:35;;;;;;;21.10;4.55;;;;;;;6.60;100.00;99564.19;5082539;28;20039;-86
2024/01/05 03:10:00;;;;;;;20.33;4.40;;;;;;;6.60;100.00;99561.56;5084837;28;20078;-88
2024/01/05 03:12:26;;;;;;;19.55;4.10;;;;;;;6.58;100.00;99558.09;5082263;28;20025;-78
2024/01/05 03:14:51;;;;;;;20.67;4.32;;;;;;;6.58;100.00;99552.84;5050579;28;20024;-79
2024/01/05 03:17:16;;;;;;;21.75;4.30;;;;;;;6.59;100.00;99554.56;5064756;28;20032;-78
2024/01/05 03:19:42;;;;;;;21.50;4.18;;;;;;;6.60;100.00;99545.81;5083887;28;20032;-79
2024/01/05 03:22:07;;;;;;;19.55;4.03;;;;;;;6.60;100.00;99534.44;5083831;28;20026;-78
2024/01/05 03:24:34;;;;;;;19.40;4.20;;;;;;;6.60;100.00;99537.94;5082363;28;20056;-79
2024/01/05 03:26:59;;;;;;;19.13;3.88;;;;;;;6.60;100.00;99527.44;5084947;28;20102;-89
2024/01/05 03:29:24;;;;;;;20.73;3.92;;;;;;;6.57;100.00;99522.19;5085074;28;20044;-91
2024/01/05 03:31:49;;;;;;;21.08;4.03;;;;;;;6.58;100.00;99526.56;5082339;28;20045;-91
2024/01/05 03:34:15;;;;;;;20.15;3.90;;;;;;;6.60;100.00;99527.44;5084273;28;20020;-91
2024/01/05 03:36:40;;;;;;;18.20;3.88;;;;;;;6.60;100.00;99524.81;5080896;28;20116;-92
2024/01/05 03:39:07;;;;;;;18.42;3.63;;;;;;;6.62;100.00;99519.56;5084259;28;20490;-91
2024/01/05 03:41:33;;;;;;;19.23;3.80;;;;;;;6.62;100.00;99516.94;5082605;28;20029;-87
2024/01/05 03:43:58;;;;;;;19.70;3.30;;;;;;;6.58;100.00;99505.56;5085122;28;20022;-84
2024/01/05 03:46:24;;;;;;;20.52;3.88;;;;;;;6.58;100.00;99502.94;5081810;28;20082;-86
2024/01/05 03:48:49;;;;;;;19.02;3.53;;;;;;;6.62;100.00;99501.19;5081151;28;20529;-91
2024/01/05 03:51:14;;;;;;;17.60;3.30;;;;;;;6.60;100.00;99489.81;5084036;28;20068;-90
2024/01/05 03:53:40;;;;;;;19.48;3.65;;;;;;;6.56;100.00;99483.66;5084077;28;20024;-91
2024/01/05 03:56:06;;;;;;;18.80;3.47;;;;;;;6.53;100.00;99482.81;5082585;28;20025;-91
2024/01/05 03:58:31;;;;;;;21.55;3.38;;;;;;;6.50;100.00;99477.56;5085885;28;20032;-91
2024/01/05 04:00:56;;;;;;;19.67;3.83;;;;;;;6.47;100.00;99475.81;5085615;28;20146;-91
2024/01/05 04:03:22;;;;;;;16.67;3.38;;;;;;;6.50;100.00;99470.56;5088995;28;20036;-89
2024/01/05 04:05:47;;;;;;;17.23;3.40;;;;;;;6.47;100.00;99481.06;5085331;28;20032;-82
2024/01/05 04:08:12;;;;;;;19.38;3.42;;;;;;;6.48;100.00;99466.16;5086343;28;20032;-81
2024/01/05 04:10:38;;;;;;;20.05;3.50;;;;;;;6.42;100.00;99465.31;5086578;28;20024;-79
2024/01/05 04:13:04;;;;;;;19.60;3.55;;;;;;;6.42;100.00;99451.31;5066798;28;20028;-79
2024/01/05 04:15:30;;;;;;;17.88;3.40;;;;;;;6.42;100.00;99446.03;5087733;28;20024;-79
2024/01/05 04:17:56;;;;;;;18.05;3.47;;;;;;;6.39;100.00;99443.44;5084416;28;20357;-85
2024/01/05 04:20:21;;;;;;;16.65;3.20;;;;;;;6.39;100.00;99438.19;5087335;28;20115;-81
2024/01/05 04:22:46;;;;;;;16.17;3.20;;;;;;;6.43;100.00;99434.69;5052803;28;20028;-84
2024/01/05 04:25:12;;;;;;;17.63;3.53;;;;;;;6.42;100.00;99428.56;5067807;28;20467;-79
2024/01/05 04:27:38;;;;;;;16.65;3.33;;;;;;;6.46;100.00;99437.28;5067160;28;20139;-79
2024/01/05 04:30:04;;;;;;;16.48;3.15;;;;;;;6.47;100.00;99427.69;5086935;28;20052;-79
2024/01/05 04:32:30;;;;;;;18.77;3.40;;;;;;;6.42;100.00;99418.06;5084131;28;20107;-79
2024/01/05 04:34:55;;;;;;;18.27;3.45;;;;;;;6.45;100.00;99420.69;5087788;28;20107;-80
2024/01/05 04:37:22;;;;;;;16.15;3.30;;;;;;;6.47;100.00;99412.81;5084382;28;20029;-79
2024/01/05 04:39:47;;;;;;;15.35;3.13;;;;;;;6.46;100.00;99418.91;5086326;28;20033;-79
2024/01/05 04:42:12;;;;;;;18.05;3.42;;;;;;;6.45;100.00;99401.41;5067452;28;20118;-79
2024/01/05 04:44:38;;;;;;;16.95;3.20;;;;;;;6.43;100.00;99405.81;5066706;28;20051;-78
2024/01/05 04:47:03;;;;;;;18.08;3.40;;;;;;;6.39;100.00;99404.06;5086060;28;20093;-78
2024/01/05 04:49:29;;;;;;;14.60;2.90;;;;;;;6.32;100.00;99395.34;5083952;28;20033;-78
2024/01/05 04:51:54;;;;;;;17.48;3.13;;;;;;;6.32;100.00;99397.97;5068769;28;20024;-78
2024/01/05 04:54:20;;;;;;;15.10;3.03;;;;;;;6.36;100.00;99398.81;5065878;28;20071;-78
2024/01/05 04:56:45;;;;;;;17.05;3.20;;;;;;;6.36;100.00;99386.56;5085664;28;20043;-78
2024/01/05 04:59:10;;;;;;;16.33;3.10;;;;;;;6.38;100.00;99381.34;5085063;28;20039;-78
2024/01/05 05:01:36;;;;;;;17.45;3.35;;;;;;;6.40;100.00;99379.56;5084134;28;20158;-78
2024/01/05 05:04:01;;;;;;;17.70;2.90;;;;;;;6.39;100.00;99372.56;5068309;28;20067;-78
2024/01/05 05:06:27;;;;;;;14.27;2.90;;;;;;;6.38;100.00;99374.31;5083089;28;20032;-78
2024/01/05 05:08:53;;;;;;;16.15;3.05;;;;;;;6.40;100.00;99366.44;5086734;28;20356;-78
2024/01/05 05:11:19;;;;;;;17.90;3.28;;;;;;;6.39;100.00;99368.19;5065176;28;20038;-78
2024/01/05 05:13:44;;;;;;;14.98;2.97;;;;;;;6.37;100.00;99363.81;5085095;28;20029;-78
2024/01/05 05:16:10;;;;;;;16.58;2.97;;;;;;;6.27;100.00;99360.34;5085156;28;20039;-78
2024/01/05 05:18:35;;;;;;;14.93;2.88;;;;;;;6.24;100.00;99361.22;5083616;28;20502;-78
2024/01/05 05:21:01;;;;;;;19.92;3.53;;;;;;;6.28;100.00;99364.72;5086422;28;20059;-78
2024/01/05 05:23:26;;;;;;;16.25;3.20;;;;;;;6.30;100.00;99360.31;5083006;28;20032;-78
2024/01/05 05:25:51;;;;;;;17.77;3.05;;;;;;;6.37;100.00;99364.69;5085838;28;20099;-78
2024/01/05 05:28:17;;;;;;;15.48;2.83;;;;;;;6.37;100.00;99362.06;5065605;28;20054;-78
2024/01/05 05:30:43;;;;;;;13.45;2.70;;;;;;;6.49;100.00;99370.78;5084514;28;20033;-78
2024/01/05 05:33:08;;;;;;;16.08;3.28;;;;;;;6.57;100.00;99363.78;5066934;28;20028;-78
2024/01/05 05:35:33;;;;;;;14.93;2.95;;;;;;;6.55;100.00;99344.50;5082901;28;20028;-78
2024/01/05 05:38:03;;;;;;;15.02;2.92;;;;;;;6.53;100.00;99341.91;5086569;28;20047;-85
2024/01/05 05:40:28;;;;;;;12.73;2.97;;;;;;;6.64;100.00;99357.63;5069323;28;20061;-87
2024/01/05 05:42:53;;;;;;;14.88;2.70;;;;;;;6.62;100.00;99347.09;5085951;28;20029;-82
2024/01/05 05:45:19;;;;;;;10.18;2.20;;;;;;;6.78;100.00;99349.69;5083672;28;20056;-88
2024/01/05 05:47:44;;;;;;;12.50;2.55;;;;;;;6.72;100.00;99350.56;5084709;28;20044;-90
2024/01/05 05:50:09;;;;;;;10.88;2.35;;;;;;;6.74;100.00;99345.31;5085469;28;20024;-86
2024/01/05 05:52:35;;;;;;;9.95;2.30;;;;;;;6.77;100.00;99347.94;5065462;28;20020;-86
2024/01/05 05:55:00;;;;;;;10.25;2.10;;;;;;;6.70;100.00;99348.84;5085869;28;20027;-91
2024/01/05 05:57:26;;;;;;;7.22;2.00;;;;;;;6.86;100.00;99341.75;5082779;28;20035;-83
2024/01/05 05:59:51;;;;;;;7.43;2.00;;;;;;;6.86;100.00;99315.50;5085655;28;20569;-91
2024/01/05 06:02:17;;;;;;;6.28;1.80;;;;;;;6.85;100.00;99346.16;5084085;28;20089;-84
2024/01/05 06:04:42;;;;;;;4.70;1.60;;;;;;;6.82;100.00;99330.41;5084711;28;20035;-78
2024/01/05 06:07:07;;;;;;;6.55;1.65;;;;;;;6.71;100.00;99334.84;5085451;28;20141;-78
2024/01/05 06:09:33;;;;;;;6.32;1.60;;;;;;;6.73;100.00;99362.84;5083182;28;20032;-79
2024/01/05 06:11:58;;;;;;;2.53;1.30;;;;;;;6.73;100.00;99328.69;5086686;28;20028;-91
2024/01/05 06:14:24;;;;;;;2.60;1.50;;;;;;;6.67;100.00;99346.22;5083559;28;20121;-91
2024/01/05 06:16:49;;;;;;;1.63;1.40;;;;;;;6.61;100.00;99350.63;5085699;28;20033;-90
2024/01/05 06:19:14;;;;;;;4.80;1.60;;;;;;;6.57;100.00;99330.50;5085004;28;20024;-91
2024/01/05 06:21:40;;;;;;;1.95;1.40;;;;;;;6.53;100.00;99339.28;5083728;28;20029;-91
2024/01/05 06:24:05;;;;;;;2.40;1.60;;;;;;;6.45;100.00;99346.28;5085062;28;20024;-90
2024/01/05 06:26:31;;;;;;;2.92;1.30;;;;;;;6.57;100.00;99343.63;5065976;28;20024;-91
2024/01/05 06:28:56;;;;;;;4.50;1.58;;;;;;;6.60;100.00;99333.13;5069121;28;20138;-91
2024/01/05 06:31:23;;;;;;;5.10;1.60;;;;;;;6.55;100.00;99342.78;5084465;28;20457;-88
2024/01/05 06:33:48;;;;;;;4.88;1.60;;;;;;;6.73;100.00;99346.22;5057040;28;20036;-82
2024/01/05 06:36:13;;;;;;;1.33;1.20;;;;;;;6.77;100.00;99345.31;5082859;28;20131;-88
2024/01/05 06:38:39;;;;;;;4.18;1.50;;;;;;;6.90;100.00;99343.50;5082470;28;20033;-86
2024/01/05 06:41:05;;;;;;;2.05;1.40;;;;;;;6.92;100.00;99349.66;5066211;28;20024;-89
2024/01/05 06:43:30;;;;;;;3.53;1.50;;;;;;;7.07;100.00;99340.81;5063072;28;20050;-78
2024/01/05 06:45:55;;;;;;;6.88;1.50;;;;;;;7.08;100.00;99348.69;5084625;28;20028;-78
2024/01/05 06:48:21;;;;;;;3.10;1.40;;;;;;;7.13;100.00;99351.28;5081575;28;20032;-78
2024/01/05 06:50:46;;;;;;;2.03;1.35;;;;;;;7.24;100.00;99359.97;5065171;28;20071;-78
2024/01/05 06:53:11;;;;;;;2.50;1.45;;;;;;;7.25;100.00;99353.84;5083150;28;20028;-78
2024/01/05 06:55:37;;;;;;;3.30;1.50;;;;;;;7.30;100.00;99343.31;5081859;28;20040;-78
2024/01/05 06:58:03;;;;;;;1.50;1.40;;;;;;;7.32;100.00;99381.84;5066581;28;20024;-77
2024/01/05 07:00:28;;;;;;;2.17;1.50;;;;;;;7.32;100.00;99347.69;5081256;28;20028;-78
2024/01/05 07:02:54;;;;;;;2.47;1.50;;;;;;;7.28;100.00;99343.31;5084193;28;20024;-78
2024/01/05 07:05:20;;;;;;;2.65;1.50;;;;;;;7.20;100.00;99347.72;5081951;28;20489;-78
2024/01/05 07:07:45;;;;;;;1.63;1.50;;;;;;;7.18;100.00;99344.25;5082873;28;20035;-78
2024/01/05 07:10:11;;;;;;;3.30;1.70;;;;;;;7.22;100.00;99340.69;5083031;28;20035;-78
2024/01/05 07:12:38;;;;;;;5.03;1.73;;;;;;;7.23;100.00;99337.19;5081838;28;20569;-78
2024/01/05 07:15:04;;;;;;;2.03;1.40;;;;;;;7.18;100.00;99349.50;5083949;28;20082;-78
2024/01/05 07:17:29;;;;;;;2.75;1.40;;;;;;;7.17;100.00;99342.50;5080790;28;20036;-78
2024/01/05 07:19:54;;;;;;;2.65;1.50;;;;;;;7.10;100.00;99339.00;5084131;28;20479;-78
2024/01/05 07:22:20;;;;;;;4.60;1.63;;;;;;;7.14;100.00;99353.91;5081607;28;20111;-77
2024/01/05 07:24:48;;;;;;;2.67;1.48;;;;;;;7.15;100.00;99353.03;5082516;28;20032;-76
2024/01/05 07:27:16;;;;;;;4.75;1.60;;;;;;;7.14;100.00;99338.13;5082404;28;20052;-78
2024/01/05 07:29:41;;;;;;;2.90;1.40;;;;;;;7.09;100.00;99350.44;5082026;28;20472;-78
2024/01/05 07:32:07;;;;;;;2.95;1.45;;;;;;;7.02;100.00;99356.59;5065254;28;20036;-78
2024/01/05 07:34:32;;;;;;;1.63;1.33;;;;;;;6.89;100.00;99336.53;5083877;28;20033;-88
2024/01/05 07:36:57;;;;;;;3.70;1.48;;;;;;;6.89;100.00;99353.16;5088807;28;20043;-88
2024/01/05 07:39:23;;;;;;;2.55;1.50;;;;;;;6.71;100.00;99347.97;5085733;28;20380;-86
2024/01/05 07:41:49;;;;;;;3.90;1.60;;;;;;;6.26;100.00;99359.47;5087287;28;20493;-85
2024/01/05 07:44:14;;;;;;;3.50;1.60;;;;;;;6.04;100.00;99365.59;5086545;28;20024;-88
2024/01/05 07:46:41;;;;;;;2.67;1.50;;;;;;;5.96;100.00;99365.59;5085479;28;20237;-88
2024/01/05 07:49:07;;;;;;;1.85;1.60;;;;;;;5.82;100.00;99381.31;5087331;28;20033;-87
2024/01/05 07:51:32;;;;;;;4.63;1.70;;;;;;;5.73;100.00;99404.91;5066551;28;20103;-87
2024/01/05 07:53:58;;;;;;;3.15;1.60;;;;;;;5.66;100.00;99379.56;5087743;28;20132;-87
2024/01/05 07:56:23;;;;;;;4.07;1.73;;;;;;;5.57;100.00;99390.91;5084858;28;20028;-88
2024/01/05 07:58:49;;;;;;;6.15;2.20;;;;;;;5.48;100.00;99389.16;5068328;28;20036;-87
2024/01/05 08:01:19;;;;;;;5.18;2.10;;;;;;;5.46;100.00;99393.53;5085974;28;20032;-85
2024/01/05 08:03:45;;;;;;;6.05;2.35;;;;;;;5.44;100.00;99395.25;5086010;28;20077;-86
2024/01/05 08:06:17;;;;;;;4.38;2.10;;;;;;;5.32;100.00;99395.25;5086298;28;20032;-79
2024/01/05 08:08:50;;;;;;;3.67;1.70;;;;;;;5.37;100.00;99390.88;5086251;28;20108;-78
2024/01/05 08:11:16;;;;;;;6.20;2.10;;;;;;;5.29;100.00;99379.50;5084149;28;20037;-80
2024/01/05 08:13:42;;;;;;;4.35;1.80;;;;;;;5.32;100.00;99387.38;5086921;28;20375;-79
2024/01/05 08:16:08;;;;;;;7.95;2.00;;;;;;;5.28;100.00;99388.22;5084868;28;20116;-80
2024/01/05 08:18:34;;;;;;;5.10;1.83;;;;;;;5.30;100.00;99391.72;5087348;28;20135;-81
2024/01/05 08:21:00;;;;;;;6.93;1.95;;;;;;;5.27;100.00;99386.47;5065950;28;20039;-80
2024/01/05 08:23:25;;;;;;;4.47;1.85;;;;;;;5.29;100.00;99401.34;5087179;28;20032;-79
2024/01/05 08:25:51;;;;;;;6.13;2.03;;;;;;;5.30;100.00;99391.72;5066614;28;20523;-78
2024/01/05 08:28:16;;;;;;;6.05;1.90;;;;;;;5.27;100.00;99408.34;5085340;28;20055;-78
2024/01/05 08:30:43;;;;;;;3.90;1.90;;;;;;;5.27;100.00;99402.19;5051035;28;20047;-78
2024/01/05 08:33:09;;;;;;;6.03;1.90;;;;;;;5.20;100.00;99399.56;5085018;28;20261;-79
2024/01/05 08:35:35;;;;;;;5.97;2.00;;;;;;;5.22;100.00;99420.53;5086754;28;20110;-79
2024/01/05 08:38:02;;;;;;;3.90;2.00;;;;;;;5.21;100.00;99413.53;5083767;28;20093;-79
2024/01/05 08:40:28;;;;;;;6.85;2.17;;;;;;;5.18;100.00;99403.91;5083633;28;20036;-79
2024/01/05 08:42:54;;;;;;;5.43;2.00;;;;;;;5.13;100.00;99400.41;5068299;28;20073;-80
2024/01/05 08:45:20;;;;;;;6.00;2.00;;;;;;;5.12;100.00;99411.75;5083520;28;20035;-79
2024/01/05 08:47:45;;;;;;;6.32;2.10;;;;;;;5.01;100.00;99406.50;5085302;28;20041;-79
2024/01/05 08:50:11;;;;;;;3.67;1.95;;;;;;;5.05;100.00;99451.88;5085785;28;20127;-80
2024/01/05 08:52:36;;;;;;;4.88;2.10;;;;;;;4.94;100.00;99432.66;5084214;28;20127;-79
2024/01/05 08:55:03;;;;;;;4.70;2.10;;;;;;;4.82;100.00;99431.72;5069111;28;20028;-79
2024/01/05 08:57:28;;;;;;;3.08;1.98;;;;;;;4.71;100.00;99425.53;5083287;28;20035;-79
2024/01/05 08:59:54;;;;;;;3.72;2.00;;;;;;;4.60;100.00;99437.69;5069768;28;20044;-87
2024/01/05 09:02:20;;;;;;;3.60;2.05;;;;;;;4.57;100.00;99446.38;5084507;28;20032;-79
2024/01/05 09:04:45;;;;;;;2.42;1.80;;;;;;;4.45;100.00;99462.03;5085048;28;20542;-80
2024/01/05 09:07:11;;;;;;;2.40;1.77;;;;;;;4.36;100.00;99473.28;5085738;28;20036;-86
2024/01/05 09:09:36;;;;;;;5.90;2.20;;;;;;;4.23;100.00;99425.22;5083828;28;20060;-85
2024/01/05 09:12:02;;;;;;;3.22;2.00;;;;;;;4.13;100.00;99442.59;5069103;28;20161;-84
2024/01/05 09:14:27;;;;;;;3.50;1.90;;;;;;;4.16;100.00;99440.00;5069799;28;20025;-84
2024/01/05 09:16:53;;;;;;;4.30;2.08;;;;;;;4.16;100.00;99450.44;5086587;28;20520;-86
2024/01/05 09:19:20;;;;;;;4.00;2.05;;;;;;;4.20;100.00;99446.13;5084971;28;20027;-82
2024/01/05 09:21:45;;;;;;;6.53;2.33;;;;;;;4.26;100.00;99433.09;5085284;28;20483;-84
2024/01/05 09:24:11;;;;;;;4.68;2.30;;;;;;;4.30;100.00;99444.47;5084980;28;20028;-84
2024/01/05 09:26:36;;;;;;;5.10;2.33;;;;;;;4.29;100.00;99455.81;5083305;28;20024;-78
2024/01/05 09:29:01;;;;;;;5.78;2.40;;;;;;;4.32;100.00;99447.97;5086699;28;20201;-80
2024/01/05 09:31:27;;;;;;;8.98;2.70;;;;;;;4.33;100.00;99441.88;5083153;28;20117;-81
2024/01/05 09:33:54;;;;;;;9.27;2.58;;;;;;;4.31;100.00;99456.66;5086004;28;20495;-82
2024/01/05 09:36:19;;;;;;;8.70;2.65;;;;;;;4.32;100.00;99445.34;5084551;28;20032;-82
2024/01/05 09:38:45;;;;;;;7.40;2.60;;;;;;;4.33;100.00;99452.34;5084738;28;20089;-81
2024/01/05 09:41:13;;;;;;;5.93;2.60;;;;;;;4.35;100.00;99454.13;5085788;28;20028;-82
2024/01/05 09:43:40;;;;;;;7.40;2.70;;;;;;;4.43;100.00;99467.25;5083627;28;20025;-79
2024/01/05 09:46:07;;;;;;;5.47;2.63;;;;;;;4.44;100.00;99465.50;5085274;28;20465;-78
2024/01/05 09:48:32;;;;;;;10.70;2.90;;;;;;;4.43;100.00;99459.41;5082153;28;20392;-78
2024/01/05 09:50:59;;;;;;;10.30;2.90;;;;;;;4.45;100.00;99475.97;5082417;28;20016;-78
2024/01/05 09:53:25;;;;;;;8.75;2.75;;;;;;;4.49;100.00;99479.50;5085120;28;20020;-78
2024/01/05 09:55:50;;;;;;;9.90;3.03;;;;;;;4.54;100.00;99469.94;5083371;28;20487;-77
2024/01/05 09:58:16;;;;;;;9.50;3.20;;;;;;;4.57;100.00;99480.41;5083736;28;20482;-78
2024/01/05 10:00:52;;;;;;;9.82;3.10;;;;;;;4.63;100.00;99476.97;5084140;28;20052;-78
2024/01/05 10:03:22;;;;;;;10.88;3.40;;;;;;;4.67;100.00;99479.59;5083834;28;20506;-77
2024/01/05 10:05:49;;;;;;;9.57;3.00;;;;;;;4.71;100.00;99470.91;5083606;28;20035;-78
2024/01/05 10:08:15;;;;;;;10.00;3.42;;;;;;;4.72;100.00;99474.44;5065349;28;20078;-78
2024/01/05 10:10:49;;;;;;;11.70;3.53;;;;;;;4.83;100.00;99474.47;5084204;28;20464;-78
2024/01/05 10:13:15;;;;;;;10.57;3.65;;;;;;;4.89;100.00;99484.97;5083283;28;20032;-78
2024/01/05 10:16:00;;;;;;;13.60;3.70;;;;;;;4.99;100.00;99470.19;5084075;28;20039;-78
2024/01/05 10:18:28;;;;;;;9.32;3.50;;;;;;;5.00;100.00;99464.09;5079393;28;20661;-78
2024/01/05 10:20:55;;;;;;;13.65;3.80;;;;;;;5.00;100.00;99464.09;5082534;28;20077;-78
2024/01/05 10:23:21;;;;;;;11.05;3.78;;;;;;;5.06;100.00;99466.75;5083868;28;20020;-78
2024/01/05 10:25:47;;;;;;;10.60;3.60;;;;;;;5.14;100.00;99466.78;5065456;28;20024;-78
2024/01/05 10:28:26;;;;;;;8.43;3.20;;;;;;;5.18;100.00;99472.03;5083442;28;20449;-78
2024/01/05 10:30:52;;;;;;;9.98;3.40;;;;;;;5.18;100.00;99466.78;5082149;28;20028;-78
2024/01/05 10:33:21;;;;;;;8.40;3.03;;;;;;;5.18;100.00;99476.41;5083663;28;20025;-78
2024/01/05 10:35:46;;;;;;;9.75;3.13;;;;;;;5.23;100.00;99467.69;5082953;28;20032;-78
2024/01/05 10:38:16;;;;;;;5.97;2.90;;;;;;;5.27;100.00;99455.50;5064622;28;20035;-78
2024/01/05 10:40:41;;;;;;;8.07;2.83;;;;;;;5.24;100.00;99490.41;5083773;28;20085;-78
2024/01/05 10:43:17;;;;;;;6.32;2.90;;;;;;;5.30;100.00;99460.75;5081856;28;20028;-78
2024/01/05 10:45:44;;;;;;;9.65;2.92;;;;;;;5.26;100.00;99458.97;5058315;28;20391;-91
2024/01/05 10:48:13;;;;;;;8.55;2.90;;;;;;;5.26;100.00;99464.22;5082915;28;20566;-80
2024/01/05 10:50:41;;;;;;;5.47;2.65;;;;;;;5.26;100.00;99458.09;5085314;28;20016;-86
2024/01/05 10:53:10;;;;;;;6.82;2.80;;;;;;;5.27;100.00;99457.22;5082401;28;20056;-77
2024/01/05 10:55:37;;;;;;;9.15;2.85;;;;;;;5.29;100.00;99463.38;5084847;28;20024;-77
2024/01/05 10:58:05;;;;;;;6.25;2.70;;;;;;;5.29;100.00;99460.75;5082139;28;20031;-92
2024/01/05 11:00:30;;;;;;;7.10;2.63;;;;;;;5.32;100.00;99468.63;5082629;28;20089;-92
2024/01/05 11:03:14;;;;;;;7.80;2.70;;;;;;;5.29;100.00;99453.75;5085119;28;20032;-92
2024/01/05 11:05:41;;;;;;;8.48;2.70;;;;;;;5.32;100.00;99437.16;5082693;28;20464;-92
2024/01/05 11:08:22;;;;;;;6.82;2.50;;;;;;;5.35;100.00;99460.75;5084559;28;20028;-91
2024/01/05 11:11:00;;;;;;;5.65;2.50;;;;;;;5.35;100.00;99445.03;5085052;28;20028;-92
2024/01/05 11:13:58;;;;;;;10.52;2.85;;;;;;;5.35;100.00;99455.53;5083528;28;20020;-92
2024/01/05 11:17:01;;;;;;;7.15;2.65;;;;;;;5.35;100.00;99447.66;5085440;28;20055;-89
2024/01/05 11:19:58;;;;;;;9.00;2.80;;;;;;;5.39;100.00;99450.28;5081677;28;20128;-92
2024/01/05 11:22:34;;;;;;;7.45;2.78;;;;;;;5.33;100.00;99458.13;5070233;28;20043;-92
2024/01/05 11:25:00;;;;;;;7.50;3.03;;;;;;;5.40;100.00;99457.28;5085619;28;20070;-90